Havtind — LCMP — position and weather

sailwx.info

Track history (hours):
 
Tides and Currents Weather Stations Pressure Air Temp Water Temp Dewpoint Dewpoint Depression Visibility Wind Speed Wind Dir Waves Ship Positions

Havtind

Last reported at 2018-Feb-18 04:07 UTC. Time now 2018-Feb-18 04:50 UTC.
Position N 70°27' E 017°11'.

Length 60 m; draft 7.6 m.

Type: Fishing. MMSI: 259707000.

Date/timePositionNaut miles runAvg speedWind from/ knotsBaromVisibWave heightAir tempDewpointWater temp
2018-Feb-18 04:07N 70°27' E 017°11'0 3.7
2018-Feb-18 04:00N 70°26' E 017°11'2 3.7
2018-Feb-18 03:30N 70°25' E 017°12'2 3.7
2018-Feb-18 03:00N 70°23' E 017°14'2 3.8
2018-Feb-18 02:30N 70°21' E 017°15'2 3.8
2018-Feb-18 02:00N 70°19' E 017°15'2 3.7
2018-Feb-18 01:30N 70°17' E 017°13'2 3.7
2018-Feb-18 01:00N 70°16' E 017°10'2 3.7
2018-Feb-18 00:31N 70°14' E 017°12'1 2.9
2018-Feb-18 00:00N 70°15' E 017°13'4 8.3
2018-Feb-17 23:30N 70°19' E 017°16'4 8.8
2018-Feb-17 23:00N 70°24' E 017°14'2 4.8
2018-Feb-17 22:31N 70°26' E 017°12'2 3.2
2018-Feb-17 22:00N 70°28' E 017°12'2 3.3
2018-Feb-17 21:30N 70°29' E 017°13'2 3.5
2018-Feb-17 21:00N 70°31' E 017°13'2 3.4
2018-Feb-17 20:30N 70°33' E 017°13'2 3.1
2018-Feb-17 20:00N 70°34' E 017°15'1 2.9
2018-Feb-17 19:30N 70°36' E 017°15'2 3.1
2018-Feb-17 19:00N 70°37' E 017°14'2 3.5
2018-Feb-17 18:30N 70°39' E 017°13'1 2.0
2018-Feb-17 18:01N 70°38' E 017°15'2 4.3
2018-Feb-17 17:30N 70°36' E 017°16'2 4.3
2018-Feb-17 17:00N 70°34' E 017°17'2 3.6
2018-Feb-17 16:30N 70°36' E 017°17'1 1.6
2018-Feb-17 16:00N 70°36' E 017°16'2 4.0
2018-Feb-17 15:31N 70°34' E 017°16'2 3.7
2018-Feb-17 15:00N 70°32' E 017°14'2 4.0
2018-Feb-17 14:30N 70°30' E 017°13'2 4.0
2018-Feb-17 14:00N 70°29' E 017°13'2 4.2
2018-Feb-17 13:31N 70°26' E 017°12'2 4.2
2018-Feb-17 13:00N 70°24' E 017°13'2 4.0
2018-Feb-17 12:30N 70°23' E 017°16'2 4.0
2018-Feb-17 12:00N 70°21' E 017°17'4 7.1
2018-Feb-17 11:30N 70°24' E 017°19'713.1
2018-Feb-17 11:00N 70°31' E 017°20'713.0
2018-Feb-17 10:30N 70°37' E 017°19'612.9
2018-Feb-17 10:00N 70°44' E 017°19'1 2.9
2018-Feb-17 09:31N 70°45' E 017°17'2 3.9
2018-Feb-17 09:00N 70°43' E 017°16'2 3.7
2018-Feb-17 08:30N 70°41' E 017°17'1 2.5
2018-Feb-17 08:00N 70°42' E 017°18'2 3.5
2018-Feb-17 07:30N 70°44' E 017°18'2 3.6
2018-Feb-17 07:01N 70°46' E 017°19'2 3.4
2018-Feb-17 06:31N 70°48' E 017°18'611.7
2018-Feb-17 06:00N 70°53' E 017°15'612.1
2018-Feb-17 05:30N 70°59' E 017°10'13 0.3
2018-Feb-15 13:37N 71°12' E 017°02'0 3.5
2018-Feb-15 13:30N 71°13' E 017°02'  
Track history (hours):
 
Tides and Currents Weather Stations Pressure Air Temp Water Temp Dewpoint Dewpoint Depression Visibility Wind Speed Wind Dir Waves Ship Positions

Havtind

Last reported at 2018-Feb-18 04:07 UTC. Time now 2018-Feb-18 04:50 UTC.
Position N 70°27' E 017°11'.

Length 60 m; draft 7.6 m.

Type: Fishing. MMSI: 259707000.

Date/timePositionNaut miles runAvg speedWind from/ knotsBaromVisibWave heightAir tempDewpointWater temp
2018-Feb-18 04:07N 70°27' E 017°11'0 3.7
2018-Feb-18 04:00N 70°26' E 017°11'2 3.7
2018-Feb-18 03:30N 70°25' E 017°12'2 3.7
2018-Feb-18 03:00N 70°23' E 017°14'2 3.8
2018-Feb-18 02:30N 70°21' E 017°15'2 3.8
2018-Feb-18 02:00N 70°19' E 017°15'2 3.7
2018-Feb-18 01:30N 70°17' E 017°13'2 3.7
2018-Feb-18 01:00N 70°16' E 017°10'2 3.7
2018-Feb-18 00:31N 70°14' E 017°12'1 2.9
2018-Feb-18 00:00N 70°15' E 017°13'4 8.3
2018-Feb-17 23:30N 70°19' E 017°16'4 8.8
2018-Feb-17 23:00N 70°24' E 017°14'2 4.8
2018-Feb-17 22:31N 70°26' E 017°12'2 3.2
2018-Feb-17 22:00N 70°28' E 017°12'2 3.3
2018-Feb-17 21:30N 70°29' E 017°13'2 3.5
2018-Feb-17 21:00N 70°31' E 017°13'2 3.4
2018-Feb-17 20:30N 70°33' E 017°13'2 3.1
2018-Feb-17 20:00N 70°34' E 017°15'1 2.9
2018-Feb-17 19:30N 70°36' E 017°15'2 3.1
2018-Feb-17 19:00N 70°37' E 017°14'2 3.5
2018-Feb-17 18:30N 70°39' E 017°13'1 2.0
2018-Feb-17 18:01N 70°38' E 017°15'2 4.3
2018-Feb-17 17:30N 70°36' E 017°16'2 4.3
2018-Feb-17 17:00N 70°34' E 017°17'2 3.6
2018-Feb-17 16:30N 70°36' E 017°17'1 1.6
2018-Feb-17 16:00N 70°36' E 017°16'2 4.0
2018-Feb-17 15:31N 70°34' E 017°16'2 3.7
2018-Feb-17 15:00N 70°32' E 017°14'2 4.0
2018-Feb-17 14:30N 70°30' E 017°13'2 4.0
2018-Feb-17 14:00N 70°29' E 017°13'2 4.2
2018-Feb-17 13:31N 70°26' E 017°12'2 4.2
2018-Feb-17 13:00N 70°24' E 017°13'2 4.0
2018-Feb-17 12:30N 70°23' E 017°16'2 4.0
2018-Feb-17 12:00N 70°21' E 017°17'4 7.1
2018-Feb-17 11:30N 70°24' E 017°19'713.1
2018-Feb-17 11:00N 70°31' E 017°20'713.0
2018-Feb-17 10:30N 70°37' E 017°19'612.9
2018-Feb-17 10:00N 70°44' E 017°19'1 2.9
2018-Feb-17 09:31N 70°45' E 017°17'2 3.9
2018-Feb-17 09:00N 70°43' E 017°16'2 3.7
2018-Feb-17 08:30N 70°41' E 017°17'1 2.5
2018-Feb-17 08:00N 70°42' E 017°18'2 3.5
2018-Feb-17 07:30N 70°44' E 017°18'2 3.6
2018-Feb-17 07:01N 70°46' E 017°19'2 3.4
2018-Feb-17 06:31N 70°48' E 017°18'611.7
2018-Feb-17 06:00N 70°53' E 017°15'612.1
2018-Feb-17 05:30N 70°59' E 017°10'13 0.3
2018-Feb-15 13:37N 71°12' E 017°02'0 3.5
2018-Feb-15 13:30N 71°13' E 017°02'  

Dump ship's entire track history